Time;durP1;ratioP1;P1;durP2;ratioP2;P2;SDS_P1;SDS_P2;PMS_P1;PMS_P2;Temp;Humidity;BMP_temperature;BMP_pressure;BME280_temperature;BME280_humidity;BME280_pressure;Samples;Min_cycle;Max_cycle;Signal;HPM_P1;HPM_P2
2023/10/11 00:01:29;;;;;;;9.20;5.00;;;;;;;8.32;45.34;101050.13;107966;1256;73762;-62
2023/10/11 00:03:58;;;;;;;7.10;4.40;;;;;;;8.09;45.92;101052.34;108091;1254;68784;-65
2023/10/11 00:06:33;;;;;;;6.90;4.40;;;;;;;8.14;46.05;101052.08;108069;1257;72694;-65
2023/10/11 00:09:00;;;;;;;8.20;4.20;;;;;;;8.34;45.74;101047.46;107959;1254;61119;-66
2023/10/11 00:11:30;;;;;;;10.70;4.80;;;;;;;8.41;45.97;101049.65;108036;1254;60312;-66
2023/10/11 00:13:56;;;;;;;11.40;6.40;;;;;;;8.42;46.00;101048.27;107939;1254;73842;-66
2023/10/11 00:16:23;;;;;;;11.70;6.20;;;;;;;8.24;46.46;101044.98;108045;1254;70886;-66
2023/10/11 00:18:51;;;;;;;12.40;5.80;;;;;;;8.19;46.90;101044.16;108060;1257;72864;-65
2023/10/11 00:21:18;;;;;;;12.90;5.80;;;;;;;8.23;46.99;101036.77;108075;1254;61008;-65
2023/10/11 00:23:46;;;;;;;10.60;6.10;;;;;;;8.25;46.88;101040.77;108091;1253;60469;-65
2023/10/11 00:26:14;;;;;;;11.30;6.40;;;;;;;8.13;47.36;101041.61;108064;1255;73886;-65
2023/10/11 00:28:44;;;;;;;8.50;5.10;;;;;;;8.05;47.59;101037.86;107973;1254;70026;-65
2023/10/11 00:31:16;;;;;;;8.00;4.90;;;;;;;8.03;47.47;101038.23;108044;1258;73163;-66
2023/10/11 00:33:43;;;;;;;7.10;4.60;;;;;;;8.04;47.22;101038.75;108068;1254;60940;-65
2023/10/11 00:36:10;;;;;;;8.60;4.60;;;;;;;8.09;47.01;101040.44;108147;1257;60987;-64
2023/10/11 00:38:48;;;;;;;7.30;4.10;;;;;;;8.10;47.01;101040.43;107992;1254;73413;-65
2023/10/11 00:41:17;;;;;;;8.20;4.30;;;;;;;8.01;47.10;101045.25;108009;1254;70092;-65
2023/10/11 00:43:50;;;;;;;8.20;4.40;;;;;;;7.94;47.10;101050.77;108052;1254;72419;-66
2023/10/11 00:46:22;;;;;;;7.60;4.80;;;;;;;8.16;46.39;101050.31;108038;1254;60399;-67
2023/10/11 00:48:56;;;;;;;8.80;4.30;;;;;;;7.99;46.58;101057.17;108032;1253;60379;-65
2023/10/11 00:51:29;;;;;;;9.80;4.60;;;;;;;7.95;46.63;101058.09;107985;1253;73138;-66
2023/10/11 00:54:00;;;;;;;7.10;4.40;;;;;;;7.89;46.61;101061.84;108039;1254;69429;-66
2023/10/11 00:56:31;;;;;;;;;;;;;;;7.78;46.68;101065.80;108032;1253;72472;-65
2023/10/11 00:59:08;;;;;;;7.40;3.90;;;;;;;7.69;46.67;101065.73;107921;1257;61011;-64
2023/10/11 01:01:37;;;;;;;7.20;4.10;;;;;;;7.62;46.75;101066.48;108017;1254;59774;-66
2023/10/11 01:04:06;;;;;;;7.60;4.90;;;;;;;7.54;46.93;101069.88;108020;1253;72857;-65
2023/10/11 01:06:34;;;;;;;7.00;3.90;;;;;;;7.50;47.09;101068.69;108094;1254;68483;-64
2023/10/11 01:09:04;;;;;;;6.60;3.90;;;;;;;7.46;47.14;101068.56;108048;1254;73003;-65
2023/10/11 01:11:30;;;;;;;10.50;4.90;;;;;;;7.47;46.97;101075.02;108076;1254;60395;-66
2023/10/11 01:13:58;;;;;;;9.70;4.50;;;;;;;7.62;46.72;101074.70;107928;1254;60417;-64
2023/10/11 01:16:28;;;;;;;8.70;4.60;;;;;;;7.70;46.39;101075.15;107985;1256;73723;-64
2023/10/11 01:18:55;;;;;;;10.20;4.50;;;;;;;7.64;46.42;101077.11;108000;1257;70814;-65
2023/10/11 01:21:22;;;;;;;7.40;4.10;;;;;;;7.67;46.50;101076.38;108117;1254;72695;-65
2023/10/11 01:23:48;;;;;;;7.40;4.70;;;;;;;7.72;46.22;101078.96;108023;1254;61496;-66
2023/10/11 01:26:15;;;;;;;9.80;5.50;;;;;;;7.70;46.49;101084.75;107905;1254;60357;-65
2023/10/11 01:28:47;;;;;;;13.20;6.20;;;;;;;7.64;46.26;101084.80;107896;1254;74124;-65
2023/10/11 01:31:16;;;;;;;10.10;5.90;;;;;;;7.56;46.48;101085.77;108073;1254;70311;-63
2023/10/11 01:33:44;;;;;;;11.90;5.70;;;;;;;7.49;46.77;101088.97;107994;1256;73239;-65
2023/10/11 01:36:15;;;;;;;11.50;6.50;;;;;;;7.38;46.65;101090.65;108025;1254;60947;-66
2023/10/11 01:38:48;;;;;;;8.90;5.80;;;;;;;7.36;46.86;101090.14;108044;1257;60495;-65
2023/10/11 01:41:40;;;;;;;13.30;5.90;;;;;;;7.34;46.90;101094.52;108099;1253;72157;-65
2023/10/11 01:44:07;;;;;;;13.90;7.60;;;;;;;7.36;46.76;101094.32;108150;1257;70161;-67
2023/10/11 01:46:39;;;;;;;14.10;6.70;;;;;;;7.39;46.86;101096.76;108070;1253;72985;-65
2023/10/11 01:49:07;;;;;;;11.40;6.50;;;;;;;7.30;46.88;101095.95;108093;1253;61174;-66
2023/10/11 01:51:39;;;;;;;12.20;6.70;;;;;;;7.25;46.81;101093.88;108095;1253;59928;-65
2023/10/11 01:54:09;;;;;;;13.40;6.20;;;;;;;7.13;47.11;101093.28;108047;1257;73735;-65
2023/10/11 01:56:38;;;;;;;10.80;7.10;;;;;;;7.06;47.07;101095.43;108216;1254;68264;-63
2023/10/11 01:59:04;;;;;;;12.20;6.60;;;;;;;7.11;46.93;101100.64;108084;1256;72446;-66
2023/10/11 02:01:38;;;;;;;10.30;6.00;;;;;;;7.18;46.81;101097.27;108067;1253;60471;-63
2023/10/11 02:04:17;;;;;;;13.70;6.50;;;;;;;7.16;46.58;101098.16;108048;1254;60402;-66
2023/10/11 02:06:43;;;;;;;12.90;5.90;;;;;;;6.99;46.95;101096.18;108042;1254;73864;-65
2023/10/11 02:09:11;;;;;;;12.60;6.30;;;;;;;7.00;46.98;101097.58;107829;1254;70750;-65
2023/10/11 02:11:41;;;;;;;12.60;6.60;;;;;;;7.01;46.84;101100.71;108110;1253;71098;-65
2023/10/11 02:14:08;;;;;;;17.90;6.40;;;;;;;6.91;46.71;101100.59;108098;1253;60957;-65
2023/10/11 02:16:36;;;;;;;12.30;5.70;;;;;;;6.78;47.02;101103.64;108038;1254;60613;-64
2023/10/11 02:19:02;;;;;;;14.30;6.60;;;;;;;6.65;47.48;101110.87;108012;1254;74470;-65
2023/10/11 02:21:29;;;;;;;16.00;6.60;;;;;;;6.70;47.35;101114.86;108020;1253;69016;-64
2023/10/11 02:23:58;;;;;;;11.70;6.70;;;;;;;6.71;47.38;101122.70;108035;1254;71630;-67
2023/10/11 02:26:31;;;;;;;13.10;6.10;;;;;;;6.72;47.20;101121.65;108077;1254;59773;-65
2023/10/11 02:29:15;;;;;;;11.40;6.30;;;;;;;6.71;47.25;101125.67;108007;1253;60776;-64
2023/10/11 02:31:42;;;;;;;16.20;7.10;;;;;;;6.66;47.29;101131.63;108018;1254;73833;-66
2023/10/11 02:34:18;;;;;;;13.20;7.10;;;;;;;6.70;47.52;101135.80;107939;1255;70253;-65
2023/10/11 02:36:55;;;;;;;15.30;7.10;;;;;;;6.70;47.50;101139.12;108054;1253;73245;-66
2023/10/11 02:39:22;;;;;;;14.10;7.60;;;;;;;6.62;47.77;101141.24;107899;1254;60926;-64
2023/10/11 02:41:50;;;;;;;16.40;7.70;;;;;;;6.57;47.76;101142.33;108149;1254;60431;-65
2023/10/11 02:44:19;;;;;;;16.50;7.80;;;;;;;6.50;47.91;101143.91;108087;1253;73626;-63
2023/10/11 02:46:45;;;;;;;14.00;6.80;;;;;;;6.48;48.10;101144.96;108071;1253;70119;-64
2023/10/11 02:49:21;;;;;;;15.50;7.80;;;;;;;6.47;48.10;101146.19;108047;1253;73091;-64
2023/10/11 02:51:52;;;;;;;15.30;8.40;;;;;;;6.40;48.00;101142.39;108118;1254;61216;-65
2023/10/11 02:54:20;;;;;;;15.80;8.40;;;;;;;6.45;47.93;101146.55;108011;1253;60434;-63
2023/10/11 02:56:46;;;;;;;14.20;8.30;;;;;;;6.39;48.06;101148.14;108109;1254;72655;-64
2023/10/11 02:59:19;;;;;;;15.70;8.70;;;;;;;6.41;48.16;101144.83;108054;1254;70340;-64
2023/10/11 03:01:59;;;;;;;16.50;7.40;;;;;;;6.41;48.08;101140.28;107969;1256;72502;-64
2023/10/11 03:04:32;;;;;;;15.70;8.30;;;;;;;6.47;48.00;101142.35;108074;1254;61216;-64
2023/10/11 03:07:00;;;;;;;15.80;8.80;;;;;;;6.48;47.98;101146.19;108124;1254;60389;-63
2023/10/11 03:09:28;;;;;;;14.10;7.50;;;;;;;6.46;48.16;101149.52;108022;1254;73803;-65
2023/10/11 03:12:05;;;;;;;15.10;8.30;;;;;;;6.34;48.11;101149.38;107946;1253;70078;-66
2023/10/11 03:14:41;;;;;;;16.00;7.40;;;;;;;6.32;48.23;101147.47;108031;1254;72693;-64
2023/10/11 03:17:13;;;;;;;17.60;8.30;;;;;;;6.28;48.33;101150.45;108031;1254;62024;-65
2023/10/11 03:19:43;;;;;;;15.70;8.10;;;;;;;6.26;48.27;101154.64;108039;1254;60198;-64
2023/10/11 03:22:19;;;;;;;17.00;8.50;;;;;;;6.32;47.93;101153.23;108074;1253;72521;-67
2023/10/11 03:24:53;;;;;;;15.10;8.90;;;;;;;6.29;47.96;101154.80;108036;1253;70378;-65
2023/10/11 03:27:20;;;;;;;18.80;8.80;;;;;;;6.23;48.33;101152.20;108106;1256;71180;-65
2023/10/11 03:29:47;;;;;;;19.60;9.30;;;;;;;6.20;48.27;101153.44;107972;1253;61814;-64
2023/10/11 03:32:14;;;;;;;19.20;9.60;;;;;;;6.16;48.32;101153.10;108131;1253;60348;-64
2023/10/11 03:34:41;;;;;;;18.30;10.10;;;;;;;6.17;48.34;101146.65;108032;1253;74204;-64
2023/10/11 03:37:17;;;;;;;18.80;9.50;;;;;;;6.07;48.67;101148.59;108004;1253;70872;-65
2023/10/11 03:39:56;;;;;;;22.40;10.00;;;;;;;5.99;48.55;101152.27;108062;1256;72449;-64
2023/10/11 03:42:50;;;;;;;15.00;7.80;;;;;;;6.09;48.31;101149.80;108017;1253;60809;-65
2023/10/11 03:45:10;;;;;;;13.70;7.60;;;;;;;6.14;48.37;101147.54;107953;1253;60305;-64
2023/10/11 03:47:38;;;;;;;16.40;8.90;;;;;;;6.07;48.45;101140.04;108090;1254;72598;-66
2023/10/11 03:50:06;;;;;;;17.30;8.30;;;;;;;6.18;48.16;101142.98;108118;1253;70345;-65
2023/10/11 03:52:33;;;;;;;17.90;9.70;;;;;;;6.33;47.67;101145.02;108066;1253;71369;-65
2023/10/11 03:55:10;;;;;;;18.20;9.50;;;;;;;6.41;47.50;101142.04;108114;1253;62366;-66
2023/10/11 03:57:41;;;;;;;20.70;9.20;;;;;;;6.29;47.87;101144.86;108080;1253;60425;-64
2023/10/11 04:00:25;;;;;;;17.80;8.40;;;;;;;6.35;47.79;101141.02;108051;1253;73607;-65
2023/10/11 04:03:14;;;;;;;18.50;9.70;;;;;;;6.24;47.92;101140.86;108065;1253;70163;-64
2023/10/11 04:05:40;;;;;;;16.10;8.50;;;;;;;6.20;48.19;101149.95;108053;1253;73044;-64
2023/10/11 04:08:11;;;;;;;22.40;9.60;;;;;;;6.19;48.11;101154.66;108048;1253;61666;-65
2023/10/11 04:10:46;;;;;;;17.10;9.40;;;;;;;6.37;47.59;101155.48;108045;1253;60531;-62
2023/10/11 04:13:15;;;;;;;17.70;8.80;;;;;;;6.34;47.85;101158.63;108039;1254;74152;-62
2023/10/11 04:18:06;;;;;;;20.70;10.80;;;;;;;4.58;52.49;101164.61;105396;1285;600894;-65
2023/10/11 04:20:34;;;;;;;25.80;11.70;;;;;;;5.59;49.58;101163.25;107312;1265;60457;-65
2023/10/11 04:23:10;;;;;;;24.70;12.70;;;;;;;5.70;49.38;101165.68;107309;1263;60063;-64
2023/10/11 04:25:37;;;;;;;26.50;12.20;;;;;;;5.75;49.31;101162.20;107444;1263;72333;-66
2023/10/11 04:28:05;;;;;;;21.30;11.30;;;;;;;5.81;49.21;101160.45;107307;1263;69290;-66
2023/10/11 04:30:41;;;;;;;24.40;10.90;;;;;;;5.96;49.16;101161.33;107236;1265;240482;-66
2023/10/11 04:33:13;;;;;;;23.20;12.00;;;;;;;5.85;49.22;101166.53;107457;1262;60716;-66
2023/10/11 04:35:42;;;;;;;29.00;14.10;;;;;;;5.86;49.39;101167.06;107554;1261;61979;-66
2023/10/11 04:38:13;;;;;;;30.30;12.80;;;;;;;6.03;49.22;101165.31;107441;1261;72988;-66
2023/10/11 04:41:02;;;;;;;40.70;18.30;;;;;;;5.96;49.50;101166.37;107483;1265;69754;-66
2023/10/11 04:43:39;;;;;;;47.80;20.10;;;;;;;6.03;49.43;101167.42;107418;1266;72484;-66
2023/10/11 04:46:15;;;;;;;34.80;16.40;;;;;;;5.96;49.91;101170.20;107452;1263;59825;-66
2023/10/11 04:48:44;;;;;;;51.20;22.00;;;;;;;6.30;49.34;101172.23;107392;1262;59144;-65
2023/10/11 04:53:54;;;;;;;51.80;20.40;;;;;;;6.48;49.47;101179.52;107451;1263;70012;-67
2023/10/11 05:04:28;;;;;;;66.40;27.70;;;;;;;6.30;49.97;101176.61;107418;1263;73065;-63
2023/10/11 05:06:56;;;;;;;63.60;25.30;;;;;;;6.39;49.96;101181.98;107421;1262;67979;-66
2023/10/11 05:09:30;;;;;;;66.00;27.20;;;;;;;6.51;50.04;101180.90;107523;1267;74110;-66
2023/10/11 05:22:49;;;;;;;72.90;27.20;;;;;;;9.98;51.18;101169.88;107435;1263;71541;-66
2023/10/11 05:27:49;;;;;;;65.00;27.20;;;;;;;11.89;47.91;101169.45;107419;1263;59438;-66
2023/10/11 05:30:28;;;;;;;66.30;28.90;;;;;;;12.96;45.72;101166.29;107398;1263;70928;-67
2023/10/11 05:51:58;;;;;;;37.60;21.10;;;;;;;18.47;33.45;101162.16;108146;1255;59933;-66
2023/10/11 05:54:34;;;;;;;37.80;18.70;;;;;;;19.00;32.45;101162.13;108144;1252;60525;-68
2023/10/11 05:57:05;;;;;;;31.10;18.60;;;;;;;19.34;32.11;101160.04;108221;1253;73122;-67
2023/10/11 05:59:35;;;;;;;33.90;17.00;;;;;;;19.58;31.66;101164.00;108093;1253;70081;-66
2023/10/11 06:02:13;;;;;;;32.10;16.80;;;;;;;20.08;30.90;101164.30;108101;1253;72519;-67
2023/10/11 06:04:40;;;;;;;32.60;17.20;;;;;;;20.22;29.70;101167.72;108110;1252;59662;-66
2023/10/11 06:07:11;;;;;;;26.20;14.90;;;;;;;20.57;29.39;101169.30;108078;1252;60364;-66
2023/10/11 06:09:43;;;;;;;31.10;16.60;;;;;;;20.96;28.98;101172.23;108073;1253;71755;-68
2023/10/11 06:12:23;;;;;;;27.40;15.00;;;;;;;21.41;28.08;101170.98;108067;1253;69596;-67
2023/10/11 06:14:52;;;;;;;24.50;13.30;;;;;;;21.78;27.37;101174.22;108026;1253;72676;-68
2023/10/11 06:20:28;;;;;;;22.90;12.40;;;;;;;22.12;26.67;101179.39;108108;1252;60030;-66
2023/10/11 06:22:54;;;;;;;25.60;12.40;;;;;;;22.08;25.83;101178.96;108138;1252;73337;-67
2023/10/11 06:28:13;;;;;;;23.40;13.10;;;;;;;21.71;25.87;101170.39;108135;1252;71869;-65
2023/10/11 06:30:47;;;;;;;20.70;11.20;;;;;;;21.71;26.00;101174.70;108170;1252;61050;-68
2023/10/11 06:33:15;;;;;;;23.50;12.60;;;;;;;21.48;25.82;101174.94;108270;1252;60018;-64
2023/10/11 06:35:49;;;;;;;24.70;13.80;;;;;;;21.21;26.33;101173.10;108130;1252;73061;-68
2023/10/11 06:38:17;;;;;;;32.20;15.10;;;;;;;20.65;26.29;101178.98;108106;1253;70774;-68
2023/10/11 06:40:48;;;;;;;30.90;13.50;;;;;;;20.39;26.72;101177.59;108157;1253;72633;-68
2023/10/11 06:43:16;;;;;;;35.40;14.50;;;;;;;20.24;27.17;101181.67;108284;1253;60339;-68
2023/10/11 06:45:44;;;;;;;22.60;11.90;;;;;;;20.22;27.03;101181.24;108299;1251;59997;-68
2023/10/11 06:48:13;;;;;;;25.20;12.90;;;;;;;19.82;27.50;101179.71;108279;1254;71920;-67
2023/10/11 06:50:41;;;;;;;24.70;11.50;;;;;;;19.55;27.81;101178.78;108296;1251;69132;-67
2023/10/11 06:53:09;;;;;;;19.90;11.00;;;;;;;19.99;27.55;101178.23;108288;1251;72789;-67
2023/10/11 06:55:47;;;;;;;18.20;10.50;;;;;;;20.33;27.13;101180.08;108223;1251;60075;-66
2023/10/11 06:58:20;;;;;;;19.50;10.60;;;;;;;20.68;26.75;101177.03;108107;1251;59972;-67
2023/10/11 07:00:53;;;;;;;18.90;10.30;;;;;;;20.95;26.21;101176.60;108119;1251;72966;-66
2023/10/11 07:05:49;;;;;;;20.40;10.60;;;;;;;21.87;25.46;101173.91;108121;1251;72911;-68
2023/10/11 07:08:19;;;;;;;17.20;8.70;;;;;;;22.24;24.89;101178.98;108315;1251;60005;-67
2023/10/11 07:11:10;;;;;;;17.30;9.00;;;;;;;22.18;24.82;101179.36;108280;1256;60117;-67
2023/10/11 07:14:00;;;;;;;13.50;7.40;;;;;;;21.97;24.65;101180.40;108258;1251;74041;-67
2023/10/11 07:16:28;;;;;;;15.30;6.80;;;;;;;22.01;24.46;101180.83;108277;1251;68951;-67
2023/10/11 07:18:59;;;;;;;14.00;7.00;;;;;;;21.80;24.58;101183.59;108251;1253;72630;-67
2023/10/11 07:25:18;;;;;;;12.90;6.30;;;;;;;22.15;24.17;101187.23;108264;1251;60014;-67
2023/10/11 07:27:08;;;;;;;12.60;6.20;;;;;;;22.27;24.17;101183.20;108175;1251;73108;-69
2023/10/11 07:29:37;;;;;;;9.60;5.40;;;;;;;22.94;23.78;101183.29;108363;1256;70438;-68
2023/10/11 07:32:09;;;;;;;11.50;6.60;;;;;;;23.59;23.03;101181.98;108283;1250;72912;-66
2023/10/11 07:34:39;;;;;;;10.60;6.30;;;;;;;23.97;22.79;101183.59;108298;1251;60134;-68
2023/10/11 07:37:07;;;;;;;11.30;6.20;;;;;;;24.00;22.15;101182.61;108199;1250;58916;-68
2023/10/11 07:39:34;;;;;;;15.50;6.30;;;;;;;23.57;22.52;101187.12;108239;1250;71648;-67
2023/10/11 07:42:08;;;;;;;14.20;7.10;;;;;;;23.42;22.56;101182.86;108193;1250;69182;-68
2023/10/11 07:44:37;;;;;;;11.30;6.10;;;;;;;23.95;22.46;101188.39;108274;1255;72468;-68
2023/10/11 07:47:15;;;;;;;12.30;7.10;;;;;;;24.02;22.36;101184.67;108338;1250;60075;-67
2023/10/11 08:03:11;;;;;;;12.40;6.20;;;;;;;25.09;21.33;101176.00;105825;1283;613672;-69
2023/10/11 08:05:46;;;;;;;12.70;6.80;;;;;;;26.06;20.19;101171.56;107204;1264;172834;-68
2023/10/11 08:08:14;;;;;;;14.10;6.00;;;;;;;25.41;20.59;101172.53;107333;1269;59641;-68
2023/10/11 08:10:45;;;;;;;10.40;6.00;;;;;;;24.64;21.16;101173.72;107524;1260;70892;-69
2023/10/11 08:13:23;;;;;;;10.60;6.10;;;;;;;24.33;21.58;101167.67;107525;1260;69066;-70
2023/10/11 08:15:57;;;;;;;14.10;6.40;;;;;;;23.99;22.00;101165.36;107515;1261;72409;-68
2023/10/11 08:18:26;;;;;;;9.50;6.10;;;;;;;24.33;22.15;101161.24;107528;1260;60816;-69
2023/10/11 08:20:54;;;;;;;10.50;6.50;;;;;;;25.01;21.45;101155.84;107486;1260;59000;-66
2023/10/11 08:23:31;;;;;;;12.10;6.00;;;;;;;25.72;20.92;101152.35;107531;1260;72247;-68
2023/10/11 08:25:59;;;;;;;13.00;6.80;;;;;;;25.87;20.65;101151.47;108180;1257;69909;-68
2023/10/11 08:28:29;;;;;;;16.20;6.90;;;;;;;26.50;20.25;101157.15;108076;1254;73244;-70
2023/10/11 08:30:57;;;;;;;10.50;7.10;;;;;;;26.96;20.08;101155.55;108149;1254;59993;-67
2023/10/11 08:33:25;;;;;;;13.10;7.50;;;;;;;27.22;19.60;101148.05;108074;1253;59524;-71
2023/10/11 08:35:53;;;;;;;10.90;6.80;;;;;;;27.58;19.53;101140.17;108236;1254;74034;-68
2023/10/11 08:38:24;;;;;;;9.30;5.20;;;;;;;27.59;18.95;101141.02;108193;1254;68844;-67
2023/10/11 08:40:58;;;;;;;;;;;;;;;26.95;19.25;101144.75;108202;1254;74966;-68
2023/10/11 08:43:25;;;;;;;8.50;4.70;;;;;;;26.50;19.37;101155.54;108126;1254;59338;-67
2023/10/11 08:46:00;;;;;;;7.50;4.20;;;;;;;26.50;19.78;101154.29;108101;1254;59933;-68
2023/10/11 08:48:29;;;;;;;8.10;4.50;;;;;;;26.73;19.65;101152.79;108196;1253;71161;-67
2023/10/11 08:50:56;;;;;;;9.70;5.30;;;;;;;26.87;19.53;101149.92;108057;1254;71148;-69
2023/10/11 08:53:24;;;;;;;10.80;5.70;;;;;;;26.80;19.44;101153.42;107888;1256;72711;-67
2023/10/11 08:55:56;;;;;;;8.10;5.20;;;;;;;26.99;19.41;101148.33;107895;1254;60084;-69
2023/10/11 08:58:27;;;;;;;8.70;4.80;;;;;;;26.83;19.51;101153.73;107946;1254;59515;-68
2023/10/11 09:00:58;;;;;;;6.70;4.50;;;;;;;25.94;20.27;101146.34;107862;1254;73970;-69
2023/10/11 09:03:26;;;;;;;12.30;5.20;;;;;;;25.41;20.59;101145.19;107931;1258;70050;-68
2023/10/11 09:06:00;;;;;;;8.20;5.50;;;;;;;25.31;20.97;101141.88;108130;1257;72444;-69
2023/10/11 09:08:32;;;;;;;11.10;5.30;;;;;;;25.59;20.97;101142.42;107929;1257;60096;-70
2023/10/11 09:11:11;;;;;;;15.40;5.50;;;;;;;25.80;20.81;101139.89;107873;1257;59592;-68
2023/10/11 09:13:40;;;;;;;8.10;4.70;;;;;;;25.75;20.56;101143.40;108022;1257;72204;-70
2023/10/11 09:16:12;;;;;;;10.70;5.00;;;;;;;25.30;20.90;101151.31;107944;1257;68329;-69
2023/10/11 09:18:42;;;;;;;10.90;4.80;;;;;;;24.70;21.49;101146.10;107882;1256;72861;-68
2023/10/11 09:21:15;;;;;;;10.00;4.60;;;;;;;24.68;21.47;101144.73;107960;1257;59493;-69
2023/10/11 09:23:47;;;;;;;9.40;4.60;;;;;;;24.28;21.80;101143.02;107940;1260;59608;-68
2023/10/11 09:26:32;;;;;;;10.40;5.40;;;;;;;24.01;22.28;101140.27;107903;1256;71866;-68
2023/10/11 09:29:16;;;;;;;8.50;5.30;;;;;;;24.31;22.11;101134.13;107988;1257;70105;-68
2023/10/11 09:31:58;;;;;;;12.80;5.80;;;;;;;24.44;21.79;101134.04;107910;1257;71768;-69
2023/10/11 09:34:30;;;;;;;10.40;5.10;;;;;;;24.51;22.04;101126.30;107891;1257;59621;-69
2023/10/11 09:37:00;;;;;;;10.00;5.50;;;;;;;24.72;21.56;101121.58;107915;1256;59490;-68
2023/10/11 09:39:29;;;;;;;7.30;4.70;;;;;;;25.47;21.19;101119.56;107906;1257;71486;-68
2023/10/11 09:42:02;;;;;;;12.80;5.10;;;;;;;25.10;20.99;101113.98;108055;1254;72288;-69
2023/10/11 09:44:37;;;;;;;14.40;5.60;;;;;;;25.07;21.26;101108.83;108058;1254;72660;-69
2023/10/11 09:47:05;;;;;;;9.80;5.00;;;;;;;25.23;20.85;101109.81;108057;1254;62475;-69
2023/10/11 09:49:41;;;;;;;8.20;4.90;;;;;;;25.01;21.13;101103.05;108075;1253;59387;-70
2023/10/11 09:52:18;;;;;;;7.70;4.50;;;;;;;25.64;20.82;101092.38;107819;1254;75409;-69
2023/10/11 09:54:50;;;;;;;10.10;4.90;;;;;;;26.17;20.29;101087.13;108000;1254;72774;-69
2023/10/11 09:57:30;;;;;;;7.20;4.70;;;;;;;25.97;20.35;101083.79;107876;1257;73050;-68
2023/10/11 10:00:14;;;;;;;8.50;4.30;;;;;;;26.03;20.11;101080.41;107996;1254;60289;-68
2023/10/11 10:02:44;;;;;;;11.80;4.10;;;;;;;25.85;20.14;101076.71;107882;1254;60158;-70
2023/10/11 10:05:12;;;;;;;8.50;4.10;;;;;;;24.97;20.57;101082.55;107986;1254;74604;-69
2023/10/11 10:10:08;;;;;;;9.30;3.90;;;;;;;24.28;21.34;101068.33;108005;1254;72683;-67
2023/10/11 10:12:54;;;;;;;7.20;4.10;;;;;;;24.91;20.85;101058.73;107997;1254;60177;-69
2023/10/11 10:15:28;;;;;;;9.00;3.40;;;;;;;25.11;20.29;101061.05;108076;1254;60897;-70
2023/10/11 10:18:05;;;;;;;6.00;3.10;;;;;;;24.43;20.60;101060.86;107999;1254;72722;-68
2023/10/11 10:20:43;;;;;;;8.50;3.50;;;;;;;23.79;21.15;101062.33;108002;1254;69444;-67
2023/10/11 10:23:14;;;;;;;12.10;3.90;;;;;;;23.79;21.32;101058.92;107991;1254;72669;-68
2023/10/11 10:25:46;;;;;;;6.00;3.50;;;;;;;24.15;21.11;101049.25;108012;1254;60177;-69
2023/10/11 10:28:32;;;;;;;8.00;3.90;;;;;;;24.34;20.67;101036.84;108003;1254;62117;-67
2023/10/11 10:31:16;;;;;;;6.50;3.10;;;;;;;24.34;20.64;101030.48;108009;1254;71264;-67
2023/10/11 10:33:51;;;;;;;9.10;3.00;;;;;;;23.96;21.13;101032.13;108065;1254;69177;-68
2023/10/11 10:36:20;;;;;;;7.70;3.10;;;;;;;24.35;20.76;101023.83;108018;1254;71456;-68
2023/10/11 10:39:03;;;;;;;8.80;2.60;;;;;;;24.45;20.55;101023.60;108025;1254;59503;-68
2023/10/11 10:41:32;;;;;;;7.80;3.50;;;;;;;24.01;20.82;101024.56;108046;1254;59417;-67
2023/10/11 10:44:19;;;;;;;10.90;3.50;;;;;;;24.04;20.95;101022.55;108016;1254;73575;-68
2023/10/11 10:46:53;;;;;;;9.10;3.50;;;;;;;24.70;20.46;101022.64;108041;1254;70307;-68
2023/10/11 10:49:42;;;;;;;7.00;3.60;;;;;;;24.91;20.06;101016.19;108016;1254;74121;-68
2023/10/11 10:52:29;;;;;;;8.10;3.60;;;;;;;24.72;19.98;101013.97;108039;1254;59762;-69
2023/10/11 10:55:04;;;;;;;9.90;3.70;;;;;;;24.73;19.85;101015.02;108040;1253;60016;-67
2023/10/11 10:57:38;;;;;;;8.90;4.50;;;;;;;24.34;20.24;101013.27;108001;1254;73142;-67
2023/10/11 11:00:21;;;;;;;12.70;4.00;;;;;;;23.55;20.84;101007.90;107982;1254;72813;-68
2023/10/11 11:02:50;;;;;;;8.00;3.70;;;;;;;23.31;21.33;101005.61;107987;1253;72747;-68
2023/10/11 11:05:25;;;;;;;9.60;3.40;;;;;;;23.35;20.89;101003.33;107992;1254;60987;-69
2023/10/11 11:08:15;;;;;;;7.40;3.40;;;;;;;23.36;20.93;101004.70;107845;1256;60306;-68
2023/10/11 11:10:54;;;;;;;10.10;3.50;;;;;;;23.18;20.99;100984.73;108104;1259;71812;-70
2023/10/11 11:13:25;;;;;;;13.90;4.10;;;;;;;23.03;21.14;100989.61;108045;1254;70014;-68
2023/10/11 11:15:55;;;;;;;7.60;3.20;;;;;;;23.27;21.04;100982.45;108033;1254;71297;-68
2023/10/11 11:18:33;;;;;;;8.30;2.90;;;;;;;22.99;20.95;100989.61;108039;1254;61604;-69
2023/10/11 11:21:25;;;;;;;5.80;2.80;;;;;;;22.61;21.19;100982.52;108033;1254;61325;-69
2023/10/11 11:23:53;;;;;;;6.50;2.90;;;;;;;22.67;21.46;100978.55;107968;1254;72235;-69
2023/10/11 11:26:31;;;;;;;10.10;3.40;;;;;;;22.43;21.72;100980.63;108025;1259;70496;-67
2023/10/11 11:29:11;;;;;;;13.00;3.70;;;;;;;22.73;21.43;100973.59;108002;1254;72689;-68
2023/10/11 11:31:52;;;;;;;10.10;3.60;;;;;;;23.00;21.29;100967.84;107972;1254;59733;-67
2023/10/11 11:34:37;;;;;;;12.80;3.60;;;;;;;23.38;20.93;100967.79;108085;1254;59979;-69
2023/10/11 11:37:06;;;;;;;7.20;3.60;;;;;;;23.12;20.71;100964.94;108033;1254;72228;-68
2023/10/11 11:39:50;;;;;;;8.00;3.60;;;;;;;22.84;20.84;100966.01;108027;1254;70777;-68
2023/10/11 11:42:24;;;;;;;8.70;2.90;;;;;;;22.25;21.47;100975.91;108044;1255;72691;-70
2023/10/11 11:44:55;;;;;;;6.50;2.60;;;;;;;22.29;21.40;100978.44;107902;1256;59838;-68
2023/10/11 11:47:22;;;;;;;6.30;2.90;;;;;;;22.30;21.54;100967.84;107697;1257;61984;-69
2023/10/11 11:49:58;;;;;;;;;;;;;;;22.32;21.63;100975.16;107770;1262;73268;-67
2023/10/11 11:52:28;;;;;;;8.80;2.80;;;;;;;22.22;21.59;100975.17;107881;1257;70403;-69
2023/10/11 11:54:56;;;;;;;6.50;2.90;;;;;;;22.19;21.44;100973.41;107879;1255;71551;-68
2023/10/11 11:57:29;;;;;;;7.90;3.60;;;;;;;22.22;21.50;100964.99;107917;1256;59749;-68
2023/10/11 11:59:58;;;;;;;12.00;3.90;;;;;;;22.24;21.62;100967.55;107878;1260;60154;-66
2023/10/11 12:02:26;;;;;;;9.80;3.40;;;;;;;22.22;21.30;100975.71;107925;1257;72056;-69
2023/10/11 12:04:56;;;;;;;9.50;2.90;;;;;;;22.19;21.12;100970.02;107934;1256;70121;-69
2023/10/11 12:07:24;;;;;;;5.80;2.40;;;;;;;22.03;21.22;100966.88;107904;1256;72298;-68
2023/10/11 12:09:55;;;;;;;6.20;3.10;;;;;;;21.69;21.52;100971.83;107999;1256;59752;-68
2023/10/11 12:12:30;;;;;;;9.80;2.60;;;;;;;21.81;21.67;100964.48;107830;1256;60014;-68
2023/10/11 12:14:59;;;;;;;4.90;2.10;;;;;;;22.10;21.40;100964.08;107759;1255;73521;-68
2023/10/11 12:17:28;;;;;;;9.60;3.90;;;;;;;22.16;21.11;100957.01;107907;1257;71733;-66
2023/10/11 12:19:56;;;;;;;7.20;3.40;;;;;;;21.90;21.55;100951.52;107872;1257;72368;-66
2023/10/11 12:22:23;;;;;;;8.90;3.30;;;;;;;22.06;21.80;100948.63;107857;1256;61025;-67
2023/10/11 12:24:51;;;;;;;9.00;2.70;;;;;;;22.31;21.18;100946.27;107947;1256;60412;-68
2023/10/11 12:27:22;;;;;;;7.30;2.50;;;;;;;22.18;20.43;100949.73;107837;1256;75519;-68
2023/10/11 12:29:53;;;;;;;15.00;3.00;;;;;;;21.81;20.88;100943.09;107861;1256;72593;-67
2023/10/11 12:32:34;;;;;;;13.80;3.20;;;;;;;21.97;20.76;100946.19;107871;1256;74413;-69
2023/10/11 12:35:06;;;;;;;9.60;3.70;;;;;;;22.24;20.42;100940.13;107883;1256;60430;-69
2023/10/11 12:37:35;;;;;;;7.60;3.00;;;;;;;22.45;20.14;100937.04;108024;1254;60902;-67
2023/10/11 12:40:11;;;;;;;8.10;2.80;;;;;;;22.53;20.16;100930.55;107896;1257;74245;-66
2023/10/11 12:42:44;;;;;;;9.50;3.40;;;;;;;22.66;20.19;100922.72;107900;1257;69129;-69
2023/10/11 12:45:16;;;;;;;6.20;3.40;;;;;;;22.84;19.84;100927.15;107924;1257;70914;-67
2023/10/11 12:47:45;;;;;;;11.30;3.70;;;;;;;23.21;19.54;100916.28;107876;1257;61103;-67
2023/10/11 12:50:14;;;;;;;9.50;3.80;;;;;;;22.94;19.52;100916.90;107882;1257;60444;-68